Corrigin, Australia
Current Conditions -  °F | °C
As of 4:30 AM on Saturday 29 Nov 2014 (Local Time) from YPPH Reporting Station
Broken Clouds Broken Clouds  
Wind Chill: 64°   Ceiling: 2500
Heat Index: 64°   Visibility: 6mi
Dew Point: 59°   Wind: 8mph
Humidity: 83%   Direction: 190°S
Pressure: 29.91"   Gusts: NA
Location:  32.33°S, 117.87°E
Report Text: YPPH 282030Z 19007KT 9999 FEW019 BKN025 18/15 Q1013
Loading
Personal Weather Stations






























Interactive Weather Map New forecast layout! Learn more

10-Day Weather Forecast

Advertisements
Track Severe Weather on mobile